Time;durP1;ratioP1;P1;durP2;ratioP2;P2;SDS_P1;SDS_P2;PMS_P1;PMS_P2;Temp;Humidity;BMP_temperature;BMP_pressure;BME280_temperature;BME280_humidity;BME280_pressure;Samples;Min_cycle;Max_cycle;Signal;HPM_P1;HPM_P2
2021/08/30 00:02:01;;;;;;;14.35;8.70;;;;;;;14.03;84.12;100321.99;1656007;82;25853;-79
2021/08/30 00:04:28;;;;;;;14.50;10.63;;;;;;;14.02;84.24;100315.48;1677467;83;27474;-79
2021/08/30 00:06:55;;;;;;;13.08;9.60;;;;;;;14.00;84.35;100314.36;1647446;82;25824;-79
2021/08/30 00:09:22;;;;;;;15.85;10.28;;;;;;;13.99;84.42;100311.35;1717829;81;26523;-79
2021/08/30 00:11:49;;;;;;;11.08;9.50;;;;;;;13.97;84.51;100313.95;1675197;82;26624;-79
2021/08/30 00:14:16;;;;;;;16.50;11.45;;;;;;;13.97;84.58;100312.60;1687848;82;26641;-79
2021/08/30 00:16:43;;;;;;;27.62;13.40;;;;;;;13.97;84.76;100316.64;1696411;82;27641;-79
2021/08/30 00:19:10;;;;;;;34.23;15.43;;;;;;;13.97;85.03;100323.38;1686673;82;25867;-79
2021/08/30 00:21:37;;;;;;;31.15;15.18;;;;;;;13.97;85.39;100320.68;1662577;82;26051;-79
2021/08/30 00:24:05;;;;;;;31.82;16.80;;;;;;;13.99;85.49;100319.94;1686787;82;25989;-79
2021/08/30 00:26:32;;;;;;;26.60;16.10;;;;;;;14.02;85.77;100327.60;1651077;84;25782;-79
2021/08/30 00:28:59;;;;;;;27.45;15.43;;;;;;;14.04;85.95;100324.17;1701257;82;27517;-79
2021/08/30 00:31:26;;;;;;;33.20;17.20;;;;;;;14.07;86.11;100321.86;1669181;82;25976;-79
2021/08/30 00:33:54;;;;;;;38.30;17.50;;;;;;;14.10;86.32;100328.69;1700895;82;26556;-79
2021/08/30 00:36:24;;;;;;;67.90;29.92;;;;;;;14.11;86.41;100327.16;1689950;82;25814;-79
2021/08/30 00:38:53;;;;;;;64.77;32.38;;;;;;;14.13;86.68;100332.31;1712957;83;25324;-79
2021/08/30 00:41:20;;;;;;;44.23;26.45;;;;;;;14.16;86.95;100334.55;1621895;83;27534;-80
2021/08/30 00:43:47;;;;;;;34.10;23.22;;;;;;;14.19;87.29;100336.31;1631402;83;25906;-79
2021/08/30 00:46:17;;;;;;;43.42;23.65;;;;;;;14.23;87.63;100336.70;1715993;82;26067;-80
2021/08/30 00:48:49;;;;;;;34.33;20.80;;;;;;;14.26;87.54;100338.97;1670376;83;25911;-79
2021/08/30 00:51:18;;;;;;;25.05;17.05;;;;;;;14.28;87.61;100336.38;1667366;84;25770;-79
2021/08/30 00:53:47;;;;;;;28.77;20.48;;;;;;;14.31;87.62;100336.47;1688934;82;28141;-79
2021/08/30 00:56:17;;;;;;;24.25;19.32;;;;;;;14.32;87.72;100334.09;1720343;82;25718;-79
2021/08/30 00:58:45;;;;;;;22.87;18.95;;;;;;;14.32;87.92;100331.39;1675096;83;26535;-79
2021/08/30 01:01:14;;;;;;;24.90;19.02;;;;;;;14.35;88.12;100330.97;1687467;82;26010;-79
2021/08/30 01:03:41;;;;;;;23.77;19.75;;;;;;;14.36;88.29;100329.40;1668534;82;25740;-79
2021/08/30 01:06:44;;;;;;;28.07;19.82;;;;;;;14.38;88.40;100335.91;1721635;82;27500;-79
2021/08/30 01:09:47;;;;;;;24.60;20.15;;;;;;;14.38;88.45;100334.56;1716657;82;25809;-79
2021/08/30 01:12:56;;;;;;;24.60;20.82;;;;;;;14.40;88.74;100333.31;1699417;83;26709;-79
2021/08/30 01:15:39;;;;;;;22.05;17.82;;;;;;;14.42;88.91;100326.34;1720321;81;26167;-79
2021/08/30 01:18:04;;;;;;;21.02;17.60;;;;;;;14.41;88.78;100328.75;1721443;82;25815;-79
2021/08/30 01:20:53;;;;;;;21.52;16.80;;;;;;;14.43;88.90;100326.15;1676406;82;27610;-78
2021/08/30 01:23:24;;;;;;;23.32;16.85;;;;;;;14.42;88.62;100319.61;1710051;82;25684;-79
2021/08/30 01:25:52;;;;;;;;;;;;;;;14.43;88.61;100330.19;1693098;82;25802;-79
2021/08/30 01:28:22;;;;;;;21.62;15.20;;;;;;;14.43;88.75;100323.45;1719225;82;26096;-79
2021/08/30 01:30:52;;;;;;;22.15;18.23;;;;;;;14.40;88.83;100318.48;1653088;84;25897;-79
2021/08/30 01:33:22;;;;;;;18.90;15.37;;;;;;;14.43;88.86;100315.37;1672938;82;28256;-79
2021/08/30 01:35:50;;;;;;;21.12;16.07;;;;;;;14.44;88.88;100309.43;1721151;82;25994;-79
2021/08/30 01:38:17;;;;;;;21.12;16.40;;;;;;;14.43;88.61;100308.63;1718250;82;25986;-79
2021/08/30 01:40:45;;;;;;;23.18;17.75;;;;;;;14.42;88.74;100302.92;1673361;82;25881;-79
2021/08/30 01:43:13;;;;;;;19.12;14.93;;;;;;;14.44;88.72;100297.30;1690677;82;26126;-80
2021/08/30 01:45:41;;;;;;;21.25;15.00;;;;;;;14.42;88.69;100294.00;1718267;82;28247;-79
2021/08/30 01:48:08;;;;;;;17.82;14.93;;;;;;;14.35;88.42;100294.05;1720077;82;25921;-79
2021/08/30 01:50:38;;;;;;;18.52;14.55;;;;;;;14.34;88.64;100283.50;1654649;82;25433;-79
2021/08/30 01:53:07;;;;;;;17.45;14.58;;;;;;;14.31;88.56;100281.23;1676789;82;25808;-79
2021/08/30 02:00:48;;;;;;;18.12;15.35;;;;;;;14.22;88.73;100279.84;1644386;83;26049;-79
2021/08/30 02:03:29;;;;;;;18.75;14.78;;;;;;;14.21;88.83;100279.00;1687625;82;25870;-79
2021/08/30 02:06:03;;;;;;;18.15;15.95;;;;;;;14.24;88.88;100285.83;1720409;82;26452;-79
2021/08/30 02:11:10;;;;;;;26.40;16.82;;;;;;;14.31;88.97;100283.41;1803865;79;25622;-79
2021/08/30 02:13:36;;;;;;;19.15;17.12;;;;;;;14.29;89.09;100279.28;1772001;80;25754;-80
2021/08/30 02:16:04;;;;;;;19.00;16.45;;;;;;;14.29;89.10;100274.72;1744528;81;27602;-79
2021/08/30 02:18:45;;;;;;;22.35;18.27;;;;;;;14.32;89.14;100284.24;1700224;81;25779;-80
2021/08/30 02:21:35;;;;;;;22.85;17.05;;;;;;;14.32;89.22;100281.03;1706392;81;25898;-79
2021/08/30 02:24:41;;;;;;;26.50;18.17;;;;;;;14.33;89.34;100279.14;1723768;81;25750;-80
2021/08/30 02:27:45;;;;;;;19.20;16.95;;;;;;;14.33;89.42;100282.67;1750124;81;25698;-80
2021/08/30 02:30:30;;;;;;;21.60;16.60;;;;;;;14.33;89.54;100289.41;1719394;81;27379;-79
2021/08/30 02:33:02;;;;;;;24.10;17.95;;;;;;;14.28;89.45;100289.73;1687880;81;25859;-79
2021/08/30 02:35:33;;;;;;;19.35;16.73;;;;;;;14.29;89.55;100283.32;1717093;81;26582;-79
2021/08/30 02:38:01;;;;;;;22.37;18.80;;;;;;;14.30;89.61;100279.59;1715832;81;25819;-79
2021/08/30 02:40:29;;;;;;;19.10;16.48;;;;;;;14.32;89.74;100276.16;1711611;81;25895;-79
2021/08/30 02:43:00;;;;;;;18.30;16.17;;;;;;;14.28;89.62;100277.09;1661960;81;27613;-79
2021/08/30 02:45:29;;;;;;;20.88;16.77;;;;;;;14.23;89.59;100276.91;1691907;80;26094;-79
2021/08/30 02:48:00;;;;;;;24.35;17.67;;;;;;;14.21;89.79;100278.17;1742007;80;25750;-79
2021/08/30 02:50:28;;;;;;;;;;;;;;;14.22;89.97;100277.14;1722172;81;25834;-79
2021/08/30 02:52:57;;;;;;;21.00;16.55;;;;;;;14.23;90.23;100273.39;1719828;81;25962;-79
2021/08/30 02:55:25;;;;;;;19.90;16.80;;;;;;;14.21;90.28;100276.83;1730741;81;28287;-79
2021/08/30 02:57:52;;;;;;;20.55;16.48;;;;;;;14.18;90.15;100281.32;1724694;81;26179;-79
2021/08/30 03:00:20;;;;;;;21.57;15.68;;;;;;;14.13;90.16;100287.36;1691527;81;26564;-79
2021/08/30 03:02:48;;;;;;;22.80;17.35;;;;;;;14.11;90.08;100283.22;1723809;81;25746;-79
2021/08/30 03:05:15;;;;;;;21.15;16.50;;;;;;;14.12;90.31;100278.95;1710626;81;25869;-79
2021/08/30 03:07:44;;;;;;;23.38;17.92;;;;;;;14.13;90.33;100280.63;1733144;81;27553;-79
2021/08/30 03:10:11;;;;;;;18.40;16.32;;;;;;;14.15;90.38;100279.05;1683010;81;25831;-79
2021/08/30 03:12:42;;;;;;;21.23;17.55;;;;;;;14.17;90.42;100277.80;1751022;80;25842;-79
2021/08/30 03:15:19;;;;;;;20.43;16.37;;;;;;;14.18;90.30;100271.89;1720651;81;25910;-79
2021/08/30 03:17:46;;;;;;;26.85;17.15;;;;;;;14.17;90.37;100272.41;1744700;81;25876;-79
2021/08/30 03:20:17;;;;;;;27.85;19.62;;;;;;;14.15;90.29;100275.01;1688995;81;27408;-80
2021/08/30 03:22:46;;;;;;;20.52;16.87;;;;;;;14.18;90.35;100280.77;1711806;81;25876;-80
2021/08/30 03:25:15;;;;;;;19.50;16.55;;;;;;;14.20;90.44;100273.84;1716354;81;25937;-79
2021/08/30 03:27:46;;;;;;;19.85;16.00;;;;;;;14.21;90.42;100274.96;1742519;80;25888;-79
2021/08/30 03:30:15;;;;;;;;;;;;;;;14.21;90.42;100272.78;1707602;81;25897;-79
2021/08/30 03:32:43;;;;;;;17.30;15.50;;;;;;;14.18;90.43;100274.04;1725543;81;28678;-79
2021/08/30 03:35:12;;;;;;;19.55;16.30;;;;;;;14.16;90.48;100273.44;1749259;81;25836;-79
2021/08/30 03:37:44;;;;;;;16.75;15.03;;;;;;;14.21;90.46;100278.17;1710545;81;26513;-80
2021/08/30 03:40:17;;;;;;;19.42;15.35;;;;;;;14.22;90.39;100270.41;1665505;81;25926;-80
2021/08/30 03:42:45;;;;;;;18.02;15.53;;;;;;;14.19;90.21;100271.66;1712762;81;25979;-79
2021/08/30 03:45:21;;;;;;;19.35;14.58;;;;;;;14.19;90.21;100273.52;1754985;80;28342;-79
2021/08/30 03:47:57;;;;;;;16.48;14.53;;;;;;;14.16;90.11;100265.87;1744940;80;25971;-80
2021/08/30 03:50:25;;;;;;;16.57;14.63;;;;;;;14.11;90.12;100266.55;1687031;83;26602;-80
2021/08/30 03:52:54;;;;;;;19.70;15.75;;;;;;;14.09;90.24;100274.02;1668564;83;28739;-79
2021/08/30 03:55:21;;;;;;;23.35;16.48;;;;;;;14.08;90.44;100273.70;1702784;83;25351;-79
2021/08/30 03:57:52;;;;;;;21.10;16.23;;;;;;;14.09;90.58;100275.88;1678562;83;28095;-79
2021/08/30 04:00:20;;;;;;;22.75;16.10;;;;;;;14.10;90.57;100281.55;1690485;83;26397;-79
2021/08/30 04:02:49;;;;;;;20.77;14.40;;;;;;;14.11;90.60;100286.75;1667971;82;25874;-79
2021/08/30 04:05:21;;;;;;;18.05;16.15;;;;;;;14.13;90.70;100284.66;1711085;81;25993;-79
2021/08/30 04:07:48;;;;;;;19.65;16.17;;;;;;;14.14;90.67;100286.30;1662326;83;25832;-78
2021/08/30 04:10:15;;;;;;;28.45;19.23;;;;;;;14.13;90.64;100290.05;1672643;83;27540;-78
2021/08/30 04:12:42;;;;;;;24.67;17.90;;;;;;;14.12;90.76;100287.04;1643989;84;25692;-79
2021/08/30 04:15:10;;;;;;;24.63;17.25;;;;;;;14.10;90.79;100283.73;1643257;84;25228;-79
2021/08/30 04:17:37;;;;;;;21.75;16.17;;;;;;;14.13;90.87;100286.52;1661455;84;25789;-79
2021/08/30 04:20:05;;;;;;;19.10;15.00;;;;;;;14.14;90.96;100297.07;1637088;84;25741;-79
2021/08/30 04:22:35;;;;;;;18.12;13.90;;;;;;;14.14;90.92;100298.42;1688720;83;28231;-79
2021/08/30 04:25:02;;;;;;;15.50;13.90;;;;;;;14.14;90.84;100296.23;1684512;84;25913;-79
2021/08/30 04:27:29;;;;;;;19.95;14.68;;;;;;;14.10;90.84;100287.77;1689240;83;25873;-79
2021/08/30 04:29:56;;;;;;;21.90;14.95;;;;;;;14.13;91.02;100287.87;1659750;84;25890;-79
2021/08/30 04:32:23;;;;;;;17.17;14.25;;;;;;;14.14;91.20;100284.95;1627214;85;25813;-79
2021/08/30 04:34:50;;;;;;;17.12;14.90;;;;;;;14.16;91.21;100291.45;1655664;84;27539;-79
2021/08/30 04:37:20;;;;;;;20.95;16.12;;;;;;;14.17;91.35;100288.57;1682847;84;26622;-79
2021/08/30 04:39:46;;;;;;;21.87;16.77;;;;;;;14.20;91.41;100290.01;1673647;84;25917;-79
2021/08/30 04:42:13;;;;;;;18.12;16.23;;;;;;;14.22;91.40;100289.27;1651748;84;26483;-79
2021/08/30 04:44:40;;;;;;;19.75;16.10;;;;;;;14.23;91.40;100293.59;1680009;84;25839;-79
2021/08/30 04:47:07;;;;;;;18.55;16.00;;;;;;;14.20;91.25;100290.81;1688779;84;28118;-78
2021/08/30 04:49:34;;;;;;;17.67;15.65;;;;;;;14.19;91.33;100295.08;1647442;84;25366;-79
2021/08/30 04:52:01;;;;;;;20.25;16.73;;;;;;;14.20;91.49;100293.50;1669256;84;26516;-79
2021/08/30 04:54:28;;;;;;;21.25;17.10;;;;;;;14.25;91.52;100295.03;1693180;84;25916;-79
2021/08/30 04:56:55;;;;;;;19.30;16.77;;;;;;;14.26;91.62;100294.00;1688342;84;25819;-79
2021/08/30 04:59:22;;;;;;;20.65;17.70;;;;;;;14.28;91.71;100289.73;1627484;84;28795;-79
2021/08/30 05:01:49;;;;;;;21.48;19.27;;;;;;;14.28;91.71;100287.05;1686417;84;25872;-78
2021/08/30 05:04:16;;;;;;;21.62;19.05;;;;;;;14.30;91.68;100284.98;1680183;84;25920;-79
2021/08/30 05:06:44;;;;;;;21.33;19.02;;;;;;;14.31;91.71;100285.27;1690028;84;25955;-78
2021/08/30 05:09:10;;;;;;;22.52;18.90;;;;;;;14.33;91.80;100293.45;1659454;84;26167;-79
2021/08/30 05:11:37;;;;;;;22.32;18.15;;;;;;;14.36;91.79;100290.84;1672169;84;27574;-80
2021/08/30 05:14:05;;;;;;;23.42;19.23;;;;;;;14.38;91.81;100288.23;1676318;84;26480;-78
2021/08/30 05:16:32;;;;;;;21.95;17.95;;;;;;;14.41;91.84;100286.98;1666939;84;26044;-79
2021/08/30 05:18:59;;;;;;;19.85;17.85;;;;;;;14.44;91.86;100287.36;1611914;84;25955;-79
2021/08/30 05:21:26;;;;;;;20.90;18.67;;;;;;;14.45;91.95;100286.84;1649952;84;25861;-78
2021/08/30 05:23:53;;;;;;;20.45;18.10;;;;;;;14.48;91.95;100283.17;1686866;84;27615;-78
2021/08/30 05:26:20;;;;;;;20.65;18.48;;;;;;;14.53;92.03;100283.35;1643589;84;25801;-79
2021/08/30 05:28:47;;;;;;;20.02;17.57;;;;;;;14.57;92.06;100276.47;1643595;84;25912;-80
2021/08/30 05:31:14;;;;;;;21.65;17.85;;;;;;;14.61;92.07;100281.72;1642011;84;26027;-79
2021/08/30 05:33:42;;;;;;;21.12;19.00;;;;;;;14.64;92.33;100285.34;1687917;84;26393;-78
2021/08/30 05:36:09;;;;;;;22.50;19.62;;;;;;;14.68;92.39;100281.67;1690436;83;27469;-78
2021/08/30 05:38:37;;;;;;;25.05;19.75;;;;;;;14.70;92.44;100275.53;1638971;84;26851;-79
2021/08/30 05:41:04;;;;;;;21.77;19.60;;;;;;;14.72;92.29;100273.95;1644321;84;25780;-78
2021/08/30 05:43:31;;;;;;;21.77;19.65;;;;;;;14.75;92.38;100278.91;1639652;86;25828;-79
2021/08/30 05:45:58;;;;;;;22.07;19.80;;;;;;;14.78;92.64;100276.59;1651880;85;26619;-79
2021/08/30 05:48:25;;;;;;;23.55;21.05;;;;;;;14.83;92.72;100271.88;1653307;84;27592;-78
2021/08/30 05:50:52;;;;;;;24.02;21.55;;;;;;;14.90;92.84;100276.70;1690725;84;26138;-79
2021/08/30 05:53:19;;;;;;;23.73;21.25;;;;;;;14.97;92.72;100275.56;1689242;84;25828;-79
2021/08/30 05:55:47;;;;;;;23.73;21.37;;;;;;;15.06;92.95;100276.11;1643172;84;26524;-78
2021/08/30 05:58:13;;;;;;;24.63;22.02;;;;;;;15.13;92.96;100278.22;1620271;84;26210;-78
2021/08/30 06:00:40;;;;;;;27.98;22.58;;;;;;;15.17;92.82;100277.55;1690584;84;28236;-79
2021/08/30 06:03:07;;;;;;;24.57;21.25;;;;;;;15.22;92.97;100277.71;1700612;84;26595;-79
2021/08/30 06:05:34;;;;;;;22.58;20.25;;;;;;;15.27;92.95;100274.31;1648954;83;26426;-79
2021/08/30 06:08:02;;;;;;;23.38;20.88;;;;;;;15.29;92.97;100284.38;1633710;83;26069;-78
2021/08/30 06:10:29;;;;;;;25.65;22.77;;;;;;;15.32;93.09;100284.75;1695891;83;25912;-79
2021/08/30 06:12:56;;;;;;;24.77;22.13;;;;;;;15.35;92.86;100276.73;1677099;84;28371;-79
2021/08/30 06:15:23;;;;;;;25.60;22.42;;;;;;;15.38;92.98;100281.14;1656848;84;25909;-79
2021/08/30 06:17:50;;;;;;;27.05;22.77;;;;;;;15.42;93.22;100278.81;1654069;84;26533;-78
2021/08/30 06:20:17;;;;;;;24.23;21.62;;;;;;;15.43;93.10;100268.36;1671281;84;26618;-79
2021/08/30 06:22:45;;;;;;;25.70;23.00;;;;;;;15.47;93.13;100264.67;1671763;84;25848;-79
2021/08/30 06:25:12;;;;;;;22.90;20.55;;;;;;;15.52;93.49;100272.41;1629144;84;27529;-78
2021/08/30 06:27:39;;;;;;;24.92;21.37;;;;;;;15.57;93.38;100264.43;1648951;84;25801;-79
2021/08/30 06:30:07;;;;;;;23.80;21.33;;;;;;;15.62;93.67;100259.19;1674608;84;25882;-79
2021/08/30 06:32:34;;;;;;;23.85;21.20;;;;;;;15.69;93.76;100257.75;1668596;85;25851;-79
2021/08/30 06:35:02;;;;;;;25.05;22.45;;;;;;;15.73;93.82;100258.42;1684806;84;25844;-79
2021/08/30 06:37:29;;;;;;;25.05;21.05;;;;;;;15.79;93.97;100258.02;1634960;83;27488;-79
2021/08/30 06:39:56;;;;;;;22.55;20.15;;;;;;;15.88;93.81;100258.00;1674036;84;25781;-78
2021/08/30 06:42:23;;;;;;;23.57;21.07;;;;;;;15.96;93.54;100249.05;1674726;84;26534;-79
2021/08/30 06:44:50;;;;;;;22.58;20.08;;;;;;;16.08;94.22;100255.85;1677546;83;25823;-78
2021/08/30 06:47:17;;;;;;;22.02;19.82;;;;;;;16.17;93.55;100249.04;1617351;83;25863;-78
2021/08/30 06:49:44;;;;;;;20.92;18.75;;;;;;;16.25;93.43;100254.14;1701725;83;27479;-79
2021/08/30 06:52:11;;;;;;;21.27;19.07;;;;;;;16.31;93.20;100251.85;1700133;83;25851;-79
2021/08/30 06:54:38;;;;;;;22.67;18.60;;;;;;;16.44;92.95;100257.56;1654095;83;25941;-78
2021/08/30 06:57:05;;;;;;;21.23;19.07;;;;;;;16.61;93.41;100255.85;1652618;83;25892;-79
2021/08/30 06:59:32;;;;;;;19.05;17.23;;;;;;;16.83;93.74;100255.55;1704738;82;25994;-79
2021/08/30 07:01:59;;;;;;;17.80;16.00;;;;;;;17.02;93.27;100249.50;1700172;83;28137;-79
2021/08/30 07:04:26;;;;;;;18.70;16.80;;;;;;;17.15;91.92;100251.41;1649137;83;25820;-79
2021/08/30 07:06:53;;;;;;;14.87;13.35;;;;;;;17.25;91.89;100250.29;1614937;86;26138;-80
2021/08/30 07:09:20;;;;;;;13.10;11.90;;;;;;;17.41;90.97;100251.41;1651548;84;25815;-79
2021/08/30 07:11:48;;;;;;;14.07;12.65;;;;;;;17.51;90.59;100247.05;1687552;84;25964;-81
2021/08/30 07:14:15;;;;;;;13.15;11.73;;;;;;;17.60;90.02;100240.73;1646081;83;27459;-79
2021/08/30 07:16:42;;;;;;;11.30;10.18;;;;;;;17.63;88.99;100249.22;1622533;83;25814;-79
2021/08/30 07:19:09;;;;;;;10.98;9.85;;;;;;;17.68;87.52;100255.27;1690137;84;25860;-80
2021/08/30 07:21:36;;;;;;;12.35;10.48;;;;;;;17.73;87.34;100248.05;1695604;83;26524;-80
2021/08/30 07:24:04;;;;;;;10.43;9.43;;;;;;;17.82;86.87;100248.48;1662729;83;25782;-79
2021/08/30 07:26:31;;;;;;;8.88;8.08;;;;;;;17.90;86.45;100248.64;1657096;83;28220;-80
2021/08/30 07:28:58;;;;;;;11.03;9.25;;;;;;;17.96;85.29;100249.85;1697100;83;26030;-80
2021/08/30 07:31:25;;;;;;;10.35;8.73;;;;;;;18.03;85.51;100244.25;1694220;83;25799;-80
2021/08/30 07:33:53;;;;;;;12.30;10.23;;;;;;;18.08;85.09;100238.93;1659268;83;25950;-80
2021/08/30 07:36:21;;;;;;;10.38;9.43;;;;;;;18.09;84.95;100241.39;1647243;83;25862;-80
2021/08/30 07:38:48;;;;;;;10.05;9.05;;;;;;;18.11;85.20;100243.32;1712665;83;28112;-80
2021/08/30 07:41:15;;;;;;;10.18;9.18;;;;;;;18.10;84.68;100244.41;1702061;83;25790;-80
2021/08/30 07:43:42;;;;;;;11.68;10.55;;;;;;;18.10;84.25;100248.99;1657738;83;25853;-80
2021/08/30 07:46:09;;;;;;;12.75;10.23;;;;;;;18.10;83.84;100244.93;1597911;85;26511;-80
2021/08/30 07:48:36;;;;;;;10.98;9.85;;;;;;;18.10;83.62;100253.06;1673259;84;25828;-80
2021/08/30 07:51:03;;;;;;;13.93;11.35;;;;;;;18.07;83.19;100250.86;1664327;84;27562;-80
2021/08/30 07:53:31;;;;;;;11.75;10.60;;;;;;;18.07;83.89;100258.43;1644442;84;25876;-80
2021/08/30 07:55:58;;;;;;;11.45;10.25;;;;;;;18.08;83.19;100260.61;1647687;84;26676;-80
2021/08/30 07:58:25;;;;;;;12.73;11.12;;;;;;;18.05;82.89;100257.85;1697029;84;25823;-80
2021/08/30 08:00:52;;;;;;;12.70;10.40;;;;;;;18.07;83.05;100265.20;1692925;84;25912;-79
2021/08/30 08:03:19;;;;;;;11.78;10.13;;;;;;;18.06;82.86;100260.87;1658887;84;27645;-80
2021/08/30 08:05:46;;;;;;;13.62;11.48;;;;;;;18.07;82.59;100258.98;1685374;83;25811;-79
2021/08/30 08:08:13;;;;;;;12.03;10.45;;;;;;;18.06;82.53;100260.04;1704292;83;25848;-80
2021/08/30 08:10:40;;;;;;;13.13;11.70;;;;;;;18.09;82.77;100250.87;1702710;83;25783;-80
2021/08/30 08:13:07;;;;;;;14.87;12.85;;;;;;;18.10;83.02;100249.82;1633452;83;26313;-80
2021/08/30 08:15:34;;;;;;;12.85;11.08;;;;;;;18.14;82.62;100248.27;1648763;83;27303;-80
2021/08/30 08:18:02;;;;;;;12.85;11.50;;;;;;;18.15;82.28;100245.03;1708512;83;25749;-80
2021/08/30 08:20:31;;;;;;;11.80;10.68;;;;;;;18.14;81.89;100240.13;1710620;83;26630;-80
2021/08/30 08:23:03;;;;;;;10.65;9.63;;;;;;;18.17;82.85;100242.37;1666701;83;25841;-80
2021/08/30 08:25:30;;;;;;;12.35;9.93;;;;;;;18.19;82.35;100247.01;1655194;84;25792;-80
2021/08/30 08:28:03;;;;;;;12.05;10.80;;;;;;;18.16;82.07;100246.66;1696461;83;27639;-80
2021/08/30 08:30:27;;;;;;;12.20;10.90;;;;;;;18.11;81.66;100248.74;1711033;83;25841;-80
2021/08/30 08:32:55;;;;;;;11.18;10.18;;;;;;;18.05;81.73;100251.08;1669961;83;25963;-80
2021/08/30 08:35:22;;;;;;;9.98;9.08;;;;;;;18.00;82.29;100252.36;1634420;83;26148;-80
2021/08/30 08:37:49;;;;;;;11.33;9.83;;;;;;;17.95;82.39;100248.19;1696329;83;25889;-80
2021/08/30 08:40:16;;;;;;;11.33;9.23;;;;;;;17.88;82.42;100254.84;1697767;83;27638;-80
2021/08/30 08:42:44;;;;;;;11.00;9.90;;;;;;;17.83;82.65;100257.44;1682730;83;25742;-80
2021/08/30 08:45:15;;;;;;;11.35;10.25;;;;;;;17.77;82.75;100253.00;1691718;83;25333;-79
2021/08/30 08:47:43;;;;;;;11.55;10.03;;;;;;;17.73;82.77;100256.70;1694609;83;25820;-79
2021/08/30 08:50:15;;;;;;;13.83;11.85;;;;;;;17.68;83.34;100255.27;1695488;84;26470;-80
2021/08/30 08:52:44;;;;;;;12.93;11.68;;;;;;;17.65;83.43;100252.50;1686949;82;27476;-80
2021/08/30 08:55:13;;;;;;;13.53;12.30;;;;;;;17.64;83.80;100254.11;1678766;83;25903;-79
2021/08/30 08:57:41;;;;;;;13.48;12.23;;;;;;;17.60;84.22;100250.20;1681638;83;26535;-79
2021/08/30 09:00:12;;;;;;;13.95;12.18;;;;;;;17.60;84.79;100255.62;1697752;83;26127;-79
2021/08/30 09:02:39;;;;;;;14.38;12.88;;;;;;;17.59;85.09;100256.70;1674238;83;25869;-80
2021/08/30 09:05:22;;;;;;;15.32;13.85;;;;;;;17.57;85.53;100251.53;1671462;83;26901;-79
2021/08/30 09:07:49;;;;;;;15.80;14.25;;;;;;;17.56;85.83;100251.23;1706045;83;25850;-79
2021/08/30 09:10:18;;;;;;;14.80;12.88;;;;;;;17.52;85.92;100247.36;1695692;84;25785;-79
2021/08/30 09:12:47;;;;;;;15.45;13.95;;;;;;;17.47;86.16;100250.48;1642142;83;25522;-79
2021/08/30 09:15:23;;;;;;;15.32;13.88;;;;;;;17.47;86.49;100250.48;1641553;83;26113;-79
2021/08/30 09:17:56;;;;;;;14.80;13.40;;;;;;;17.44;86.31;100245.53;1693476;83;27421;-80
2021/08/30 09:20:33;;;;;;;15.65;14.03;;;;;;;17.42;86.21;100240.36;1664602;83;25775;-79
2021/08/30 09:23:01;;;;;;;14.25;12.82;;;;;;;17.43;86.52;100242.52;1701312;83;26626;-79
2021/08/30 09:25:28;;;;;;;13.93;12.68;;;;;;;17.47;86.74;100235.03;1704991;83;26583;-79
2021/08/30 09:27:55;;;;;;;15.32;13.80;;;;;;;17.51;86.98;100241.64;1633397;83;26631;-79
2021/08/30 09:30:28;;;;;;;13.65;12.35;;;;;;;17.58;86.82;100237.44;1616342;83;27959;-79
2021/08/30 09:32:55;;;;;;;13.13;11.73;;;;;;;17.63;86.60;100246.50;1660186;83;25855;-79
2021/08/30 09:35:22;;;;;;;12.68;11.48;;;;;;;17.67;86.41;100238.70;1691764;83;25959;-79
2021/08/30 09:37:49;;;;;;;13.95;12.35;;;;;;;17.73;86.51;100249.41;1637473;83;26033;-79
2021/08/30 09:40:27;;;;;;;14.58;12.05;;;;;;;17.78;86.13;100241.08;1690490;83;25773;-79
2021/08/30 09:42:57;;;;;;;12.75;11.57;;;;;;;17.79;84.87;100240.86;1687688;83;28253;-80
2021/08/30 09:45:28;;;;;;;13.20;11.90;;;;;;;17.75;84.78;100241.02;1691338;83;26878;-79
2021/08/30 09:48:01;;;;;;;12.63;11.33;;;;;;;17.75;84.71;100239.67;1668202;83;25882;-79
2021/08/30 09:50:31;;;;;;;15.50;12.63;;;;;;;17.73;84.09;100235.86;1668378;83;25761;-80
2021/08/30 09:53:00;;;;;;;12.10;11.10;;;;;;;17.73;84.35;100232.31;1656264;83;25990;-79
2021/08/30 09:55:28;;;;;;;12.65;11.53;;;;;;;17.73;84.17;100226.90;1708881;81;28191;-79
2021/08/30 09:57:56;;;;;;;12.30;11.03;;;;;;;17.74;84.56;100223.14;1683360;84;25861;-79
2021/08/30 10:00:24;;;;;;;13.00;11.73;;;;;;;17.75;84.65;100222.62;1639589;84;25799;-79
2021/08/30 10:02:55;;;;;;;13.80;11.70;;;;;;;17.73;84.49;100222.03;1629726;84;26642;-79
2021/08/30 10:05:25;;;;;;;14.18;12.70;;;;;;;17.68;84.78;100226.82;1640278;84;25966;-79
2021/08/30 10:07:56;;;;;;;17.15;13.28;;;;;;;17.62;85.03;100234.56;1663137;84;27396;-78
2021/08/30 10:10:24;;;;;;;16.40;13.90;;;;;;;17.48;85.50;100230.44;1635639;84;26550;-79
2021/08/30 10:12:52;;;;;;;16.35;13.38;;;;;;;17.33;85.57;100222.84;1647207;83;26151;-79
2021/08/30 10:15:22;;;;;;;15.80;13.85;;;;;;;17.24;86.33;100221.56;1704328;82;25791;-79
2021/08/30 10:17:50;;;;;;;16.32;14.78;;;;;;;17.18;86.67;100225.75;1702026;82;26454;-80
2021/08/30 10:20:25;;;;;;;16.67;15.08;;;;;;;17.18;87.24;100222.52;1643908;82;27633;-78
2021/08/30 10:22:58;;;;;;;18.48;16.67;;;;;;;17.22;87.62;100218.80;1699165;82;26278;-79
2021/08/30 10:25:26;;;;;;;17.95;16.02;;;;;;;17.22;87.50;100216.09;1705144;82;25863;-79
2021/08/30 10:28:01;;;;;;;19.07;17.05;;;;;;;17.23;87.70;100210.98;1698371;82;25492;-79
2021/08/30 10:30:29;;;;;;;18.45;16.02;;;;;;;17.24;88.08;100208.03;1702878;82;26497;-79
2021/08/30 10:33:01;;;;;;;18.60;16.70;;;;;;;17.27;88.01;100203.50;1699457;82;27601;-80
2021/08/30 10:35:35;;;;;;;17.98;16.10;;;;;;;17.32;88.86;100206.84;1699134;82;26676;-79
2021/08/30 10:38:21;;;;;;;19.45;17.40;;;;;;;17.38;89.03;100201.30;1699203;82;25819;-79
2021/08/30 10:40:54;;;;;;;18.65;16.75;;;;;;;17.46;89.58;100198.20;1723433;82;26080;-80
2021/08/30 10:43:29;;;;;;;19.45;17.55;;;;;;;17.53;89.36;100204.86;1698605;82;25832;-79
2021/08/30 10:45:58;;;;;;;17.37;15.75;;;;;;;17.60;89.19;100205.52;1696786;84;27644;-79
2021/08/30 10:48:40;;;;;;;17.95;16.07;;;;;;;17.66;89.24;100200.52;1672948;84;30053;-79
2021/08/30 10:51:25;;;;;;;16.70;15.03;;;;;;;17.69;89.15;100205.42;1649763;84;26060;-79
2021/08/30 10:54:01;;;;;;;16.87;15.30;;;;;;;17.70;89.08;100195.72;1669325;82;26584;-79
2021/08/30 10:56:31;;;;;;;14.00;12.63;;;;;;;17.78;89.37;100195.84;1702013;82;25883;-79
2021/08/30 10:59:06;;;;;;;15.75;14.25;;;;;;;17.83;88.85;100197.31;1703008;82;28325;-79
2021/08/30 11:01:28;;;;;;;13.70;12.33;;;;;;;17.90;89.25;100191.73;1679826;82;25997;-81
2021/08/30 11:03:57;;;;;;;13.48;12.18;;;;;;;17.92;88.19;100193.11;1710047;82;25835;-81
2021/08/30 11:06:25;;;;;;;13.93;12.45;;;;;;;17.95;88.23;100194.52;1707440;82;26046;-80
2021/08/30 11:08:53;;;;;;;13.98;12.65;;;;;;;17.97;88.28;100189.15;1703192;82;25861;-80
2021/08/30 11:11:25;;;;;;;12.68;11.43;;;;;;;18.05;89.00;100183.88;1678368;82;27725;-80
2021/08/30 11:14:09;;;;;;;13.18;11.68;;;;;;;18.14;88.88;100183.20;1674554;82;26234;-80
2021/08/30 11:16:38;;;;;;;13.08;11.03;;;;;;;18.21;88.35;100187.11;1717539;83;25758;-79
2021/08/30 11:19:12;;;;;;;11.53;10.00;;;;;;;18.21;87.15;100187.11;1684080;83;26085;-80
2021/08/30 11:21:54;;;;;;;10.32;9.25;;;;;;;18.19;87.22;100187.89;1673703;83;25823;-80
2021/08/30 11:24:41;;;;;;;11.08;9.98;;;;;;;18.21;87.28;100191.18;1721941;83;27536;-79
2021/08/30 11:27:26;;;;;;;11.18;9.63;;;;;;;18.23;86.97;100189.87;1722947;83;25897;-80
2021/08/30 11:29:59;;;;;;;9.28;8.35;;;;;;;18.24;87.14;100182.01;1697814;83;26548;-80
2021/08/30 11:32:28;;;;;;;10.45;8.95;;;;;;;18.24;86.99;100180.66;1650530;84;25646;-80